Palmer, Illinois
Current Conditions -  °F | °C
As of 12:15 PM on Tuesday 21 Oct 2014 (Local Time) from KTAZ Reporting Station
Scattered Clouds Scattered Clouds  
Wind Chill: 59°   Ceiling: Unl
Heat Index: 59°   Visibility: 10mi
Dew Point: 41°   Wind: 10mph
Humidity: 51%   Direction: 20°NNE
Pressure: 30.15"   Gusts: 16mph
Location:  39.46°N, 89.4°W
Report Text: KTAZ 211715Z AUTO 02009G14KT 10SM SCT039 15/05 A3015 RMK AO2
Loading
Personal Weather Stations






























Interactive Weather Map
Tropical Storm Tracking
New forecast layout! Learn more

10-Day Weather Forecast

Advertisements
Track Severe Weather on mobile